Time;durP1;ratioP1;P1;durP2;ratioP2;P2;SDS_P1;SDS_P2;PMS_P1;PMS_P2;Temp;Humidity;BMP_temperature;BMP_pressure;BME280_temperature;BME280_humidity;BME280_pressure;Samples;Min_cycle;Max_cycle;Signal;HPM_P1;HPM_P2
2022/11/03 00:01:46;;;;;;;35.28;24.77;;;;;;;12.69;70.76;100785.41;5071525;28;20038;-72
2022/11/03 00:04:14;;;;;;;38.70;24.15;;;;;;;12.40;70.84;100723.13;5088375;28;20398;-72
2022/11/03 00:06:41;;;;;;;38.85;24.25;;;;;;;12.74;71.10;100787.28;5089902;28;20453;-72
2022/11/03 00:09:09;;;;;;;35.05;24.02;;;;;;;12.71;71.54;100802.75;5089827;28;20032;-73
2022/11/03 00:11:37;;;;;;;35.00;24.13;;;;;;;12.55;72.17;100798.75;5089434;28;20020;-72
2022/11/03 00:14:03;;;;;;;40.35;24.50;;;;;;;12.53;72.68;100792.63;5089781;28;20059;-72
2022/11/03 00:16:29;;;;;;;40.40;24.98;;;;;;;12.33;73.29;100789.38;5089724;28;20020;-73
2022/11/03 00:18:54;;;;;;;34.63;25.05;;;;;;;12.38;73.38;100798.16;5089565;28;20013;-72
2022/11/03 00:21:20;;;;;;;37.28;24.25;;;;;;;12.34;73.54;100806.66;5089593;28;20559;-72
2022/11/03 00:23:46;;;;;;;34.08;23.38;;;;;;;12.27;74.05;100808.16;5089845;28;20044;-72
2022/11/03 00:26:17;;;;;;;36.17;23.73;;;;;;;12.30;74.37;100807.38;5089771;28;20055;-72
2022/11/03 00:28:44;;;;;;;35.67;22.60;;;;;;;12.11;72.16;100782.53;5089475;28;20044;-72
2022/11/03 00:31:16;;;;;;;37.90;22.63;;;;;;;12.24;71.82;100807.19;5089626;28;20071;-72
2022/11/03 00:33:42;;;;;;;37.60;24.13;;;;;;;12.24;72.00;100802.00;5089333;28;20034;-72
2022/11/03 00:36:11;;;;;;;37.70;25.27;;;;;;;12.08;74.00;100772.09;5089234;28;20024;-73
2022/11/03 00:38:37;;;;;;;33.83;24.45;;;;;;;12.20;75.96;100805.28;5092761;28;20551;-72
2022/11/03 00:41:04;;;;;;;40.33;27.08;;;;;;;12.06;77.10;100804.78;5057337;28;20028;-72
2022/11/03 00:43:32;;;;;;;40.10;26.15;;;;;;;12.05;77.33;100832.38;5093110;28;20028;-72
2022/11/03 00:45:58;;;;;;;48.55;28.17;;;;;;;12.14;77.19;100817.19;5093427;28;20067;-72
2022/11/03 00:48:31;;;;;;;38.08;27.55;;;;;;;12.01;77.25;100765.78;5093682;28;20414;-72
2022/11/03 00:51:23;;;;;;;37.88;26.73;;;;;;;12.25;76.41;100812.41;5093564;28;20478;-72
2022/11/03 00:53:52;;;;;;;36.35;25.73;;;;;;;12.08;76.42;100819.53;5090756;28;20032;-72
2022/11/03 00:56:21;;;;;;;37.17;25.88;;;;;;;11.90;78.30;100826.59;5093520;28;20437;-72
2022/11/03 00:58:48;;;;;;;36.63;25.63;;;;;;;11.93;79.22;100827.59;5093032;28;20024;-70
2022/11/03 01:01:16;;;;;;;40.83;27.15;;;;;;;11.84;79.79;100791.03;5092248;28;20071;-71
2022/11/03 01:06:48;;;;;;;35.63;24.95;;;;;;;11.98;79.79;100802.81;5086386;28;20028;-72
2022/11/03 01:06:49;;;;;;;34.42;26.60;;;;;;;12.18;78.90;100812.13;5072465;28;20108;-72
2022/11/03 01:09:22;;;;;;;35.83;24.77;;;;;;;12.25;78.07;100804.63;5072613;28;20024;-73
2022/11/03 01:12:10;;;;;;;36.55;24.63;;;;;;;11.74;76.41;100722.56;5072825;28;20032;-71
2022/11/03 01:14:38;;;;;;;39.97;25.85;;;;;;;11.30;82.39;100817.44;5072174;28;20580;-71
2022/11/03 01:17:06;;;;;;;39.22;25.92;;;;;;;11.56;82.91;100814.97;5072699;28;20117;-73
2022/11/03 01:19:31;;;;;;;38.92;27.42;;;;;;;11.40;82.70;100783.38;5072908;28;20390;-72
2022/11/03 01:21:57;;;;;;;39.92;27.20;;;;;;;11.25;83.88;100812.09;5072524;28;20048;-73
2022/11/03 01:24:23;;;;;;;41.08;27.33;;;;;;;11.45;84.04;100809.38;5072496;28;20489;-72
2022/11/03 01:26:49;;;;;;;38.83;26.73;;;;;;;11.63;83.71;100833.38;5072361;28;20020;-72
2022/11/03 01:29:14;;;;;;;36.28;22.75;;;;;;;11.51;83.07;100858.75;5072661;28;20017;-72
2022/11/03 01:31:39;;;;;;;33.55;21.70;;;;;;;11.49;81.84;100845.78;5072576;28;20405;-72
2022/11/03 01:34:05;;;;;;;40.75;21.50;;;;;;;11.60;80.37;100837.53;5072385;28;20108;-72
2022/11/03 01:36:30;;;;;;;35.20;21.63;;;;;;;11.70;80.26;100833.59;5071916;28;20066;-71
2022/11/03 01:38:56;;;;;;;33.03;19.95;;;;;;;11.70;80.13;100825.84;5072508;28;20028;-71
2022/11/03 01:41:24;;;;;;;37.05;20.98;;;;;;;11.85;79.78;100841.97;5073239;28;20029;-71
2022/11/03 01:44:06;;;;;;;41.90;20.85;;;;;;;11.82;78.61;100850.50;5071637;28;20029;-71
2022/11/03 01:46:32;;;;;;;37.72;21.38;;;;;;;11.73;79.91;100837.19;5092597;28;20071;-71
2022/11/03 01:49:08;;;;;;;37.92;22.73;;;;;;;11.71;79.18;100799.16;5092213;28;20089;-71
2022/11/03 01:51:35;;;;;;;41.00;20.15;;;;;;;12.05;79.10;100831.50;5093110;28;20028;-71
2022/11/03 01:54:06;;;;;;;34.80;17.85;;;;;;;12.23;79.60;100846.81;5093006;28;20024;-71
2022/11/03 01:56:34;;;;;;;40.63;21.15;;;;;;;12.06;80.24;100865.22;5093413;28;20111;-71
2022/11/03 01:59:01;;;;;;;32.80;19.35;;;;;;;12.12;80.02;100857.69;5093275;28;20027;-71
2022/11/03 02:01:27;;;;;;;41.17;20.30;;;;;;;12.20;79.60;100836.34;5092820;28;20024;-71
2022/11/03 02:03:58;;;;;;;37.10;19.95;;;;;;;12.18;79.33;100843.19;5092849;28;20036;-71
2022/11/03 02:06:26;;;;;;;29.92;15.13;;;;;;;12.23;79.01;100839.94;5092952;28;20470;-71
2022/11/03 02:09:03;;;;;;;34.05;15.45;;;;;;;12.36;78.19;100838.69;5092791;28;20024;-71
2022/11/03 02:14:15;;;;;;;40.70;18.95;;;;;;;12.49;77.47;100841.69;5092846;28;20054;-71
2022/11/03 02:16:44;;;;;;;29.67;18.17;;;;;;;12.50;77.68;100846.03;5092435;28;20481;-71
2022/11/03 02:19:22;;;;;;;32.80;17.92;;;;;;;12.47;78.05;100826.09;5056966;28;20090;-71
2022/11/03 02:21:58;;;;;;;33.03;18.48;;;;;;;12.46;77.59;100832.09;5092551;28;20119;-72
2022/11/03 02:24:36;;;;;;;30.58;18.58;;;;;;;12.04;79.04;100856.50;5074356;28;20067;-71
2022/11/03 02:27:01;;;;;;;34.72;21.38;;;;;;;11.41;81.85;100857.50;5092586;28;20056;-71
2022/11/03 02:29:27;;;;;;;38.55;22.35;;;;;;;11.20;83.19;100864.41;5092451;28;20044;-71
2022/11/03 02:32:23;;;;;;;39.15;22.00;;;;;;;11.48;82.60;100853.47;5074362;28;20038;-71
2022/11/03 02:34:48;;;;;;;37.42;20.88;;;;;;;11.69;81.35;100856.03;5048871;28;20095;-71
2022/11/03 02:37:20;;;;;;;38.03;22.27;;;;;;;11.79;81.56;100850.38;5049780;28;20041;-71
2022/11/03 02:40:05;;;;;;;36.03;21.65;;;;;;;11.89;80.87;100869.72;5049560;28;20511;-71
2022/11/03 02:42:31;;;;;;;32.28;20.48;;;;;;;11.98;79.53;100869.22;5049574;28;20046;-71
2022/11/03 02:45:01;;;;;;;43.47;21.83;;;;;;;12.09;79.05;100872.22;5049606;28;20127;-71
2022/11/03 02:47:29;;;;;;;37.88;21.65;;;;;;;12.01;78.83;100821.84;5049493;28;20430;-72
2022/11/03 02:49:54;;;;;;;34.70;22.23;;;;;;;12.03;77.80;100805.56;5049556;28;20041;-71
2022/11/03 02:52:41;;;;;;;34.05;20.42;;;;;;;12.33;76.96;100848.91;5049521;28;20543;-71
2022/11/03 02:55:15;;;;;;;37.55;22.88;;;;;;;12.41;74.49;100864.72;5049284;28;20061;-71
2022/11/03 02:57:53;;;;;;;39.50;24.73;;;;;;;12.19;75.05;100834.59;5049370;28;20073;-71
2022/11/03 03:00:20;;;;;;;31.52;23.88;;;;;;;12.39;75.76;100871.56;5048870;28;20125;-71
2022/11/03 03:03:18;;;;;;;38.72;24.33;;;;;;;12.24;76.23;100866.72;5049150;28;20037;-71
2022/11/03 03:05:44;;;;;;;35.58;25.55;;;;;;;11.97;76.73;100847.63;5050632;28;20417;-71
2022/11/03 03:08:11;;;;;;;33.33;25.85;;;;;;;11.95;76.62;100866.44;5091805;28;20032;-71
2022/11/03 03:10:40;;;;;;;36.13;26.80;;;;;;;11.64;78.30;100842.03;5091576;28;20030;-72
2022/11/03 03:13:07;;;;;;;40.05;27.10;;;;;;;11.85;79.57;100867.84;5091763;28;20024;-71
2022/11/03 03:15:42;;;;;;;40.38;26.48;;;;;;;11.87;80.38;100871.34;5091584;28;20474;-71
2022/11/03 03:18:15;;;;;;;37.92;26.50;;;;;;;11.80;80.44;100859.00;5091491;28;20030;-71
2022/11/03 03:21:06;;;;;;;37.50;26.70;;;;;;;11.85;80.35;100874.69;5091363;28;20032;-71
2022/11/03 03:23:38;;;;;;;37.17;27.02;;;;;;;11.89;79.98;100887.81;5091550;28;20048;-71
2022/11/03 03:26:09;;;;;;;39.70;25.70;;;;;;;11.98;79.67;100884.72;5091704;28;20028;-72
2022/11/03 03:28:42;;;;;;;37.22;27.90;;;;;;;12.10;80.86;100882.59;5090258;28;20028;-72
2022/11/03 03:31:12;;;;;;;47.42;27.30;;;;;;;12.05;81.43;100885.84;5091362;28;20107;-71
2022/11/03 03:33:38;;;;;;;40.30;27.95;;;;;;;11.71;83.51;100885.38;5091161;28;20027;-71
2022/11/03 03:36:09;;;;;;;42.80;26.90;;;;;;;11.90;83.28;100887.00;5073125;28;20028;-71
2022/11/03 03:38:40;;;;;;;37.25;26.90;;;;;;;11.70;83.47;100881.06;5091293;28;20091;-70
2022/11/03 03:41:09;;;;;;;38.75;26.73;;;;;;;11.70;83.82;100877.56;5091095;28;20028;-71
2022/11/03 03:43:35;;;;;;;39.15;26.17;;;;;;;11.82;83.18;100872.88;5073434;28;20421;-71
2022/11/03 03:46:06;;;;;;;38.40;26.88;;;;;;;12.00;82.73;100875.34;5090995;28;20028;-71
2022/11/03 03:48:32;;;;;;;38.58;27.90;;;;;;;12.12;82.05;100880.06;5090726;28;20062;-71
2022/11/03 03:51:00;;;;;;;40.13;26.50;;;;;;;12.13;81.66;100895.66;5091102;28;20062;-71
2022/11/03 03:53:29;;;;;;;41.28;28.02;;;;;;;12.09;82.23;100914.47;5091084;28;20053;-71
2022/11/03 03:55:55;;;;;;;41.90;29.27;;;;;;;11.96;83.35;100926.09;5091010;28;20027;-71
2022/11/03 03:58:20;;;;;;;38.08;26.13;;;;;;;11.75;84.30;100930.38;5090906;28;20129;-71
2022/11/03 04:00:46;;;;;;;39.95;25.35;;;;;;;11.60;84.72;100928.06;5090298;28;20047;-70
2022/11/03 04:03:29;;;;;;;37.05;26.48;;;;;;;11.60;85.47;100930.63;5090767;28;20081;-70
2022/11/03 04:05:55;;;;;;;35.38;25.40;;;;;;;11.52;85.78;100929.47;5090434;28;20028;-70
2022/11/03 04:08:20;;;;;;;36.58;26.50;;;;;;;11.56;85.55;100929.63;5090128;28;20031;-70
2022/11/03 04:24:26;;;;;;;33.42;24.45;;;;;;;11.98;83.20;100913.19;5090063;28;20417;-71
2022/11/03 04:27:04;;;;;;;39.55;26.58;;;;;;;11.78;83.07;100900.34;5071845;28;20028;-71
2022/11/03 04:29:30;;;;;;;46.42;26.73;;;;;;;11.82;83.57;100912.59;5088860;28;20024;-71
2022/11/03 04:31:56;;;;;;;42.60;26.00;;;;;;;11.89;83.59;100903.34;5089838;28;20378;-71
2022/11/03 04:34:22;;;;;;;42.75;25.77;;;;;;;11.85;83.22;100890.22;5089714;28;20027;-71
2022/11/03 04:36:48;;;;;;;42.50;25.98;;;;;;;12.00;82.72;100921.00;5090060;28;20026;-70
2022/11/03 04:39:17;;;;;;;40.83;25.20;;;;;;;11.65;84.08;100927.44;5090053;28;20115;-72
2022/11/03 04:41:43;;;;;;;44.90;25.67;;;;;;;11.59;84.55;100936.63;5089999;28;20062;-71
2022/11/03 04:44:15;;;;;;;42.13;26.67;;;;;;;11.58;84.85;100928.00;5089866;28;20149;-71
2022/11/03 04:46:44;;;;;;;38.22;25.98;;;;;;;11.52;84.71;100939.81;5087442;28;20498;-71
2022/11/03 04:49:13;;;;;;;53.38;29.55;;;;;;;11.36;85.02;100936.56;5089640;28;20021;-71
2022/11/03 04:51:40;;;;;;;48.80;27.60;;;;;;;11.41;84.43;100945.41;5086107;28;20025;-71
2022/11/03 04:54:31;;;;;;;50.03;25.42;;;;;;;11.37;84.29;100942.66;5090132;28;20059;-71
2022/11/03 04:56:56;;;;;;;55.03;26.63;;;;;;;11.34;83.91;100940.81;4979796;28;20050;-71
2022/11/03 04:59:22;;;;;;;52.75;24.35;;;;;;;11.14;84.63;100950.31;4977311;28;20038;-72
2022/11/03 05:01:47;;;;;;;46.88;24.92;;;;;;;10.79;86.64;100957.41;4986236;28;20053;-71
2022/11/03 05:04:16;;;;;;;41.97;23.70;;;;;;;10.28;87.44;100899.25;4987130;28;20053;-71
2022/11/03 05:06:52;;;;;;;44.70;24.70;;;;;;;10.44;88.10;100965.38;4987265;28;20033;-72
2022/11/03 05:09:26;;;;;;;41.55;25.77;;;;;;;10.45;88.01;100948.19;4986728;28;20070;-72
2022/11/03 05:11:52;;;;;;;34.80;24.33;;;;;;;10.66;87.79;100956.00;4998430;28;20057;-70
2022/11/03 05:14:24;;;;;;;40.00;24.35;;;;;;;10.81;86.81;100959.25;5006594;28;20494;-70
2022/11/03 05:16:54;;;;;;;45.40;24.70;;;;;;;10.89;86.40;100962.19;4988552;28;20038;-69
2022/11/03 05:19:32;;;;;;;46.25;23.02;;;;;;;10.93;85.00;100966.66;4988192;28;20088;-70
2022/11/03 05:22:01;;;;;;;44.33;22.65;;;;;;;10.97;84.69;100959.94;4987984;28;20058;-70
2022/11/03 05:24:28;;;;;;;39.53;22.27;;;;;;;11.08;83.97;100971.63;4991064;28;20050;-70
2022/11/03 05:26:56;;;;;;;44.20;22.40;;;;;;;11.04;82.98;100937.81;4991895;28;20157;-70
2022/11/03 05:29:27;;;;;;;39.25;22.10;;;;;;;11.06;82.31;100924.16;4991805;28;20049;-70
2022/11/03 05:31:55;;;;;;;38.30;22.42;;;;;;;11.41;82.03;100979.00;4991955;28;20045;-70
2022/11/03 05:34:31;;;;;;;44.40;23.15;;;;;;;11.46;81.38;100987.88;5067249;28;20168;-70
2022/11/03 05:37:12;;;;;;;45.35;22.90;;;;;;;11.47;80.82;100986.16;5093466;28;20520;-70
2022/11/03 05:39:45;;;;;;;45.35;22.55;;;;;;;11.42;81.26;101011.81;5093481;28;20031;-70
2022/11/03 05:42:35;;;;;;;40.42;22.73;;;;;;;11.22;82.38;101008.38;5093527;28;20160;-70
2022/11/03 05:45:14;;;;;;;37.67;20.58;;;;;;;11.31;82.15;101016.53;5011042;28;20074;-70
2022/11/03 05:47:40;;;;;;;37.92;21.25;;;;;;;11.16;81.26;100983.19;5009829;28;20107;-70
2022/11/03 05:50:20;;;;;;;42.13;22.20;;;;;;;11.37;80.09;101010.72;5010823;28;20500;-70
2022/11/03 05:52:48;;;;;;;42.90;19.65;;;;;;;11.45;79.24;101022.28;5010860;28;20044;-70
2022/11/03 05:55:30;;;;;;;34.40;18.58;;;;;;;11.36;80.23;101008.09;5010995;28;20026;-70
2022/11/03 05:57:58;;;;;;;32.45;18.83;;;;;;;11.44;79.62;101017.03;5002163;28;20048;-70
2022/11/03 06:00:26;;;;;;;36.33;20.20;;;;;;;11.55;78.39;101036.50;5007661;28;20038;-70
2022/11/03 06:02:52;;;;;;;35.00;19.65;;;;;;;11.62;77.18;101040.22;5010514;28;20046;-70
2022/11/03 06:05:20;;;;;;;35.30;19.17;;;;;;;11.73;77.60;101044.13;5010839;28;20037;-69
2022/11/03 06:07:48;;;;;;;34.45;19.42;;;;;;;11.82;76.41;101049.69;5010331;28;20037;-70
2022/11/03 06:10:43;;;;;;;38.15;19.33;;;;;;;11.92;75.70;101048.34;5010425;28;20069;-71
2022/11/03 06:13:17;;;;;;;36.55;20.23;;;;;;;12.01;75.47;101057.34;4952116;29;20039;-70
2022/11/03 06:15:45;;;;;;;52.13;24.42;;;;;;;12.05;75.34;101034.25;4952137;29;20043;-72
2022/11/03 06:18:18;;;;;;;46.38;23.40;;;;;;;12.33;74.00;101056.03;4959336;28;20043;-69
2022/11/03 06:20:57;;;;;;;45.90;25.67;;;;;;;12.56;73.34;101054.34;4971210;28;20098;-69
2022/11/03 06:23:23;;;;;;;49.20;26.42;;;;;;;12.72;73.03;101050.63;5030454;28;20064;-70
2022/11/03 06:25:52;;;;;;;39.38;22.83;;;;;;;12.88;72.45;101046.88;5029571;28;20037;-69
2022/11/03 06:28:21;;;;;;;53.60;23.92;;;;;;;13.03;71.46;101048.28;5029209;28;20029;-69
2022/11/03 06:30:47;;;;;;;36.30;21.05;;;;;;;13.17;70.95;101059.13;5031226;28;20072;-77
2022/11/03 06:33:23;;;;;;;38.17;20.08;;;;;;;13.08;69.05;101003.56;5033186;28;20037;-76
2022/11/03 06:35:52;;;;;;;35.22;20.42;;;;;;;13.41;69.36;101039.28;5028064;28;20029;-77
2022/11/03 06:38:22;;;;;;;39.03;20.48;;;;;;;13.66;68.92;101050.50;5026699;28;20192;-74
2022/11/03 06:40:50;;;;;;;37.90;18.88;;;;;;;13.84;68.47;101057.13;5026920;28;20037;-76
2022/11/03 06:43:27;;;;;;;35.20;18.85;;;;;;;13.98;68.11;101058.47;5028707;28;20037;-75
2022/11/03 06:46:11;;;;;;;37.10;18.27;;;;;;;13.64;67.65;100979.50;5009114;28;20036;-75
2022/11/03 06:48:38;;;;;;;30.38;17.48;;;;;;;14.23;67.33;101064.44;5008063;28;20455;-74
2022/11/03 06:51:15;;;;;;;26.27;16.75;;;;;;;14.32;67.38;101061.28;5085814;28;20036;-74
2022/11/03 06:53:40;;;;;;;27.38;16.17;;;;;;;14.34;66.91;101050.09;5068812;28;20032;-74
2022/11/03 06:56:12;;;;;;;29.67;15.88;;;;;;;14.40;65.62;101058.06;5087198;28;20459;-74
2022/11/03 06:58:37;;;;;;;23.85;14.07;;;;;;;14.18;65.82;101021.84;5079242;28;20047;-75
2022/11/03 07:01:13;;;;;;;28.30;14.02;;;;;;;14.44;64.41;101060.75;5087488;28;20074;-76
2022/11/03 07:03:39;;;;;;;26.17;14.25;;;;;;;14.54;64.23;101055.88;5087282;28;20031;-76
2022/11/03 07:06:20;;;;;;;21.70;12.35;;;;;;;14.49;63.26;101025.41;5085670;28;20028;-76
2022/11/03 07:08:53;;;;;;;23.67;12.10;;;;;;;14.76;63.10;101047.88;5085867;28;20104;-77
2022/11/03 07:11:24;;;;;;;21.65;12.43;;;;;;;14.95;62.70;101062.28;5085715;28;20031;-76
2022/11/03 07:14:11;;;;;;;26.60;12.07;;;;;;;14.96;62.16;101056.25;5068706;28;20062;-76
2022/11/03 07:16:49;;;;;;;29.70;12.77;;;;;;;14.88;61.88;101012.72;5086323;28;20032;-73
2022/11/03 07:19:27;;;;;;;27.55;13.52;;;;;;;15.26;61.50;101065.75;5086874;28;20074;-73
2022/11/03 07:22:16;;;;;;;23.48;12.30;;;;;;;15.40;62.04;101050.50;5086732;28;20024;-74
2022/11/03 07:24:46;;;;;;;28.95;12.90;;;;;;;15.53;60.88;101047.38;5009884;28;20033;-73
2022/11/03 07:27:24;;;;;;;28.02;12.05;;;;;;;15.65;60.75;101041.59;5023539;28;20049;-73
2022/11/03 07:29:51;;;;;;;25.40;12.68;;;;;;;15.83;59.80;101049.03;5022564;28;20029;-74
2022/11/03 07:32:30;;;;;;;24.42;11.60;;;;;;;15.96;59.79;101051.09;5004586;28;20451;-74
2022/11/03 07:35:16;;;;;;;21.70;11.45;;;;;;;16.13;58.70;101058.44;5003411;28;20124;-74
2022/11/03 07:37:43;;;;;;;27.13;12.00;;;;;;;16.20;59.65;101049.91;5003131;28;20109;-75
2022/11/03 07:40:15;;;;;;;25.63;12.55;;;;;;;16.37;57.93;101054.63;5001410;28;20096;-74
2022/11/03 07:42:41;;;;;;;25.40;11.70;;;;;;;16.48;57.17;101050.53;5004123;28;20129;-74
2022/11/03 07:45:45;;;;;;;25.05;11.85;;;;;;;16.66;57.11;101061.38;5003044;28;20125;-75
2022/11/03 07:48:27;;;;;;;24.25;12.18;;;;;;;16.74;58.05;101066.72;5005788;28;20052;-75
2022/11/03 07:50:56;;;;;;;27.90;10.98;;;;;;;16.79;58.05;101052.06;5006783;28;20037;-74
2022/11/03 07:53:34;;;;;;;29.02;10.77;;;;;;;17.01;56.85;101065.59;5023403;28;20082;-74
2022/11/03 07:56:00;;;;;;;29.67;11.55;;;;;;;16.93;56.18;101052.38;5023354;28;20041;-74
2022/11/03 07:58:35;;;;;;;28.80;10.55;;;;;;;16.98;57.63;101040.31;5022992;28;20026;-74
2022/11/03 08:01:15;;;;;;;29.10;11.65;;;;;;;16.95;55.68;101019.38;5035684;28;20036;-74
2022/11/03 08:03:45;;;;;;;25.67;11.18;;;;;;;17.33;56.66;101046.19;5086416;28;20028;-74
2022/11/03 08:06:10;;;;;;;;;;;;;;;17.43;55.90;101045.47;5086875;28;20078;-74
2022/11/03 08:08:35;;;;;;;22.45;10.93;;;;;;;17.49;57.17;101024.72;5082987;28;19916;-74
2022/11/03 08:11:01;;;;;;;22.60;10.68;;;;;;;17.69;56.99;101032.88;5086243;28;20020;-75
2022/11/03 08:13:26;;;;;;;21.25;9.43;;;;;;;17.79;57.27;101028.69;5085878;28;20024;-75
2022/11/03 08:15:52;;;;;;;24.02;9.20;;;;;;;18.05;58.10;101041.31;5062645;28;20486;-75
2022/11/03 08:18:17;;;;;;;19.75;7.80;;;;;;;18.24;57.51;101030.31;5063002;28;20113;-75
2022/11/03 08:20:42;;;;;;;19.52;8.00;;;;;;;18.39;57.08;101031.34;5063021;28;20168;-74
2022/11/03 08:23:10;;;;;;;16.60;7.40;;;;;;;18.50;55.71;101015.81;5063071;28;20056;-75
2022/11/03 08:25:35;;;;;;;14.95;7.20;;;;;;;18.71;55.43;101028.28;5062435;28;20108;-76
2022/11/03 08:28:02;;;;;;;10.90;7.18;;;;;;;18.54;54.69;100981.00;5063044;28;20116;-75
2022/11/03 08:30:27;;;;;;;15.50;7.03;;;;;;;18.97;54.06;101027.78;5062785;28;20640;-75
2022/11/03 08:32:53;;;;;;;14.80;7.40;;;;;;;19.11;54.55;101034.00;5061520;28;20615;-76
2022/11/03 08:35:18;;;;;;;14.13;7.47;;;;;;;19.13;54.52;101018.31;5045564;28;20044;-75
2022/11/03 08:37:43;;;;;;;16.20;6.47;;;;;;;19.25;53.48;101028.91;5062612;28;20293;-75
2022/11/03 08:40:09;;;;;;;15.13;7.63;;;;;;;19.24;53.12;101021.94;5062491;28;20653;-75
2022/11/03 08:42:34;;;;;;;18.13;7.35;;;;;;;19.36;51.99;101023.78;5062595;28;20036;-75
2022/11/03 08:45:00;;;;;;;15.95;7.05;;;;;;;19.49;52.57;101027.41;5062722;28;20040;-75
2022/11/03 08:47:25;;;;;;;15.52;7.03;;;;;;;19.56;51.70;101019.63;5079396;28;20055;-75
2022/11/03 08:49:51;;;;;;;13.98;7.38;;;;;;;19.73;52.94;101026.75;5085847;28;20032;-75
2022/11/03 08:52:16;;;;;;;44.95;9.50;;;;;;;19.79;50.96;101016.31;5085733;28;20036;-75
2022/11/03 08:54:42;;;;;;;23.60;7.63;;;;;;;19.96;50.79;101031.31;5062316;28;20036;-75
2022/11/03 08:57:07;;;;;;;15.35;6.28;;;;;;;19.90;51.07;101023.41;5062296;28;20399;-75
2022/11/03 08:59:32;;;;;;;19.30;7.10;;;;;;;19.92;52.13;101021.69;5052495;28;20579;-74
2022/11/03 09:01:58;;;;;;;13.90;7.43;;;;;;;19.98;50.72;101000.75;5064819;28;20032;-75
2022/11/03 09:04:23;;;;;;;15.05;7.07;;;;;;;20.07;51.92;101021.78;5065513;28;20032;-75
2022/11/03 09:06:48;;;;;;;14.10;7.15;;;;;;;20.17;51.30;101018.34;5065815;28;20119;-74
2022/11/03 09:09:14;;;;;;;17.20;7.90;;;;;;;20.23;50.11;101021.91;5065910;28;20446;-75
2022/11/03 09:11:40;;;;;;;13.32;7.28;;;;;;;20.32;51.12;101030.66;5049328;28;20025;-75
2022/11/03 09:14:06;;;;;;;12.95;7.07;;;;;;;20.20;50.14;100981.66;5069911;28;20044;-75
2022/11/03 09:16:31;;;;;;;17.30;7.65;;;;;;;20.31;51.25;101022.78;5065157;28;20035;-78
2022/11/03 09:18:56;;;;;;;18.90;7.95;;;;;;;20.37;51.82;100999.22;5065618;28;20056;-77
2022/11/03 09:21:22;;;;;;;14.02;7.22;;;;;;;20.38;50.00;100972.13;5064488;28;20052;-76
2022/11/03 09:23:47;;;;;;;13.48;6.53;;;;;;;20.44;49.88;101014.13;5065009;28;20135;-74
2022/11/03 09:26:14;;;;;;;11.38;6.97;;;;;;;20.46;49.99;101006.25;5068019;28;20502;-76
2022/11/03 09:28:40;;;;;;;19.02;7.20;;;;;;;20.59;49.52;101005.44;5068138;28;20510;-75
2022/11/03 09:31:05;;;;;;;9.85;5.97;;;;;;;20.75;48.57;100995.94;5074033;28;20044;-76
2022/11/03 09:33:31;;;;;;;14.45;6.50;;;;;;;20.76;48.15;100986.31;5073375;28;20032;-76
2022/11/03 09:35:57;;;;;;;15.68;5.78;;;;;;;20.36;50.09;100948.53;5087608;28;20432;-74
2022/11/03 09:38:22;;;;;;;12.23;6.38;;;;;;;20.22;48.69;100944.09;5088923;28;20020;-75
2022/11/03 09:40:48;;;;;;;11.05;6.30;;;;;;;19.85;50.73;100910.69;5088558;28;20471;-74
2022/11/03 09:43:13;;;;;;;13.57;6.68;;;;;;;20.34;50.18;100980.88;5088799;28;20031;-74
2022/11/03 09:45:39;;;;;;;13.70;6.47;;;;;;;20.55;50.08;100979.19;5088937;28;20456;-75
2022/11/03 09:48:08;;;;;;;16.63;7.47;;;;;;;20.66;49.53;100986.25;5087360;28;20028;-75
2022/11/03 09:50:33;;;;;;;16.73;6.50;;;;;;;20.78;48.13;100980.19;5089225;28;20407;-75
2022/11/03 09:52:59;;;;;;;13.07;6.43;;;;;;;20.88;48.42;100969.72;5087336;28;20430;-75
2022/11/03 09:55:26;;;;;;;13.65;6.93;;;;;;;20.87;48.67;100967.97;5088411;28;20036;-75
2022/11/03 09:57:58;;;;;;;13.50;5.88;;;;;;;20.73;48.43;100932.06;5087116;28;20169;-75
2022/11/03 10:00:23;;;;;;;11.07;6.72;;;;;;;20.81;48.28;100967.09;5088520;28;20028;-75
2022/11/03 10:02:49;;;;;;;11.63;5.35;;;;;;;20.83;47.85;100952.19;5088689;28;20034;-76
2022/11/03 10:05:23;;;;;;;13.63;6.45;;;;;;;21.00;47.12;100959.25;5088369;28;20054;-76
2022/11/03 10:07:50;;;;;;;15.30;6.70;;;;;;;21.09;46.39;100955.78;5088081;28;20032;-75
2022/11/03 10:10:18;;;;;;;11.48;6.05;;;;;;;21.07;46.72;100947.91;5068877;28;20039;-74
2022/11/03 10:12:46;;;;;;;15.38;6.55;;;;;;;21.28;46.49;100951.41;5088567;28;20066;-78
2022/11/03 10:15:15;;;;;;;14.18;5.57;;;;;;;21.31;46.46;100948.78;5087934;28;20031;-77
2022/11/03 10:17:41;;;;;;;11.52;6.32;;;;;;;21.46;45.72;100938.25;5086677;28;20019;-79
2022/11/03 10:20:15;;;;;;;13.07;6.20;;;;;;;21.55;44.85;100950.53;5086208;28;20035;-77
2022/11/03 10:22:46;;;;;;;12.98;6.72;;;;;;;21.53;45.37;100940.88;5084923;28;20608;-78
2022/11/03 10:25:28;;;;;;;16.92;6.85;;;;;;;21.55;45.24;100920.75;5087935;28;20118;-75
2022/11/03 10:28:14;;;;;;;10.93;6.35;;;;;;;21.74;45.32;100927.75;5088121;28;20028;-75
2022/11/03 10:31:01;;;;;;;14.77;7.25;;;;;;;21.98;44.36;100924.19;5083986;28;20090;-75
2022/11/03 10:33:28;;;;;;;13.43;6.50;;;;;;;22.13;44.84;100935.53;5086059;28;20036;-74
2022/11/03 10:35:55;;;;;;;13.70;6.90;;;;;;;22.30;44.32;100922.31;5087820;28;20486;-75
2022/11/03 10:38:32;;;;;;;13.90;6.80;;;;;;;22.35;42.85;100909.16;5082505;28;20020;-75
2022/11/03 10:41:12;;;;;;;15.48;6.70;;;;;;;22.38;43.07;100903.91;5084188;28;20036;-74
2022/11/03 10:43:39;;;;;;;17.50;6.88;;;;;;;22.50;42.92;100913.50;5087849;28;20103;-75
2022/11/03 10:46:18;;;;;;;10.82;6.63;;;;;;;22.31;42.54;100903.03;5087572;28;20035;-74
2022/11/03 10:48:59;;;;;;;14.38;6.38;;;;;;;22.15;43.55;100907.47;5087365;28;20447;-74
2022/11/03 10:51:25;;;;;;;27.80;23.13;;;;;;;22.38;43.46;100903.91;5084498;28;20476;-74
2022/11/03 10:53:50;;;;;;;82.32;74.32;;;;;;;22.49;42.64;100895.97;5081440;28;20060;-74
2022/11/03 10:56:16;;;;;;;34.25;19.98;;;;;;;22.24;42.38;100893.41;5086744;28;20436;-75
2022/11/03 10:58:41;;;;;;;16.08;9.43;;;;;;;22.23;43.12;100889.94;5087291;28;20028;-74
2022/11/03 11:01:10;;;;;;;17.13;7.60;;;;;;;22.45;41.75;100890.72;5082706;28;20032;-75
2022/11/03 11:03:41;;;;;;;53.65;45.33;;;;;;;22.53;41.43;100882.78;5084257;28;20165;-75
2022/11/03 11:06:26;;;;;;;18.02;13.43;;;;;;;22.52;39.98;100886.28;5086500;28;20375;-74
2022/11/03 11:08:53;;;;;;;11.60;6.57;;;;;;;22.24;40.65;100869.75;5087174;28;20436;-75
2022/11/03 11:11:21;;;;;;;17.83;8.98;;;;;;;22.20;40.08;100839.09;5086804;28;20032;-75
2022/11/03 11:14:24;;;;;;;13.00;6.13;;;;;;;22.55;39.95;100872.25;5087004;28;20066;-74
2022/11/03 11:17:00;;;;;;;12.52;6.30;;;;;;;22.40;41.14;100860.06;5086420;28;20907;-75
2022/11/03 11:19:27;;;;;;;14.05;6.13;;;;;;;22.16;41.11;100845.22;5077681;28;21046;-75
2022/11/03 11:21:52;;;;;;;17.60;6.72;;;;;;;22.45;39.40;100853.91;5084847;28;20050;-75
2022/11/03 11:24:42;;;;;;;16.00;6.60;;;;;;;22.54;39.36;100852.06;5086308;28;20490;-75
2022/11/03 11:27:30;;;;;;;15.02;5.97;;;;;;;22.53;38.50;100845.94;5086756;28;20067;-75
2022/11/03 11:30:04;;;;;;;13.00;6.47;;;;;;;22.35;38.91;100807.44;5086684;28;20024;-75
2022/11/03 11:32:38;;;;;;;13.00;6.72;;;;;;;22.71;38.93;100823.88;5086747;28;20049;-74
2022/11/03 11:35:07;;;;;;;14.93;6.90;;;;;;;22.84;38.89;100832.56;5086596;28;20389;-75
2022/11/03 11:37:35;;;;;;;15.90;6.80;;;;;;;22.29;39.20;100726.81;5086194;28;20048;-75
2022/11/03 11:40:07;;;;;;;13.57;6.15;;;;;;;22.19;38.96;100734.78;5080841;28;20035;-74
2022/11/03 11:42:33;;;;;;;14.18;6.20;;;;;;;22.67;38.80;100832.69;5085827;28;20083;-75
2022/11/03 11:45:01;;;;;;;15.63;6.47;;;;;;;22.61;38.88;100816.94;5083717;28;20728;-75